Time;durP1;ratioP1;P1;durP2;ratioP2;P2;SDS_P1;SDS_P2;PMS_P1;PMS_P2;Temp;Humidity;BMP_temperature;BMP_pressure;BME280_temperature;BME280_humidity;BME280_pressure;Samples;Min_cycle;Max_cycle;Signal;HPM_P1;HPM_P2
2021/03/08 00:02:17;;;;;;;6.65;5.10;;;6.20;57.20;;;;;;5073031;28;20164;-77
2021/03/08 00:04:43;;;;;;;6.13;5.53;;;6.20;57.30;;;;;;5074003;28;20172;-77
2021/03/08 00:07:09;;;;;;;5.47;4.47;;;6.20;57.40;;;;;;5074193;28;20171;-77
2021/03/08 00:09:35;;;;;;;6.30;5.13;;;6.20;57.50;;;;;;5073496;28;20579;-77
2021/03/08 00:12:01;;;;;;;5.83;5.20;;;6.20;57.60;;;;;;5074059;28;20926;-77
2021/03/08 00:14:26;;;;;;;5.23;4.83;;;6.30;57.80;;;;;;5072404;28;20607;-77
2021/03/08 00:16:52;;;;;;;5.20;4.60;;;6.20;57.90;;;;;;5073801;28;21118;-77
2021/03/08 00:19:18;;;;;;;8.10;5.80;;;6.30;57.90;;;;;;5073175;28;20196;-77
2021/03/08 00:21:46;;;;;;;6.07;5.10;;;6.30;58.00;;;;;;5065623;28;20611;-76
2021/03/08 00:24:13;;;;;;;5.40;4.80;;;6.30;58.10;;;;;;5055960;28;20579;-77
2021/03/08 00:26:40;;;;;;;7.38;6.55;;;6.30;58.20;;;;;;5072955;28;20539;-76
2021/03/08 00:29:06;;;;;;;6.18;5.60;;;6.30;58.40;;;;;;5062987;28;20211;-76
2021/03/08 00:31:31;;;;;;;6.20;4.93;;;6.30;58.30;;;;;;5073489;28;20212;-77
2021/03/08 00:33:57;;;;;;;5.30;4.80;;;6.30;58.50;;;;;;5054736;28;20610;-76
2021/03/08 00:36:23;;;;;;;6.70;6.00;;;6.30;58.60;;;;;;5055820;28;21203;-76
2021/03/08 00:38:49;;;;;;;5.25;4.75;;;6.30;58.60;;;;;;5055349;28;20169;-76
2021/03/08 00:41:15;;;;;;;6.77;5.67;;;6.30;58.50;;;;;;5055743;28;20558;-76
2021/03/08 00:43:41;;;;;;;6.20;5.50;;;6.30;58.70;;;;;;5073604;28;20176;-76
2021/03/08 00:46:07;;;;;;;5.87;5.37;;;6.30;58.70;;;;;;5073363;28;20174;-76
2021/03/08 00:48:33;;;;;;;5.97;5.37;;;6.30;58.70;;;;;;5038453;28;20666;-76
2021/03/08 00:50:59;;;;;;;6.03;5.53;;;6.40;59.00;;;;;;5073241;28;20267;-76
2021/03/08 00:53:25;;;;;;;5.82;5.32;;;6.40;59.00;;;;;;5055325;28;20221;-76
2021/03/08 00:55:53;;;;;;;5.18;4.78;;;6.40;59.00;;;;;;5073398;28;20531;-76
2021/03/08 00:58:18;;;;;;;6.70;5.97;;;6.40;59.20;;;;;;5055062;28;20251;-76
2021/03/08 01:00:45;;;;;;;7.72;5.70;;;6.40;59.30;;;;;;5055053;28;20597;-76
2021/03/08 01:03:12;;;;;;;10.00;6.00;;;6.40;59.20;;;;;;5073373;28;20251;-76
2021/03/08 01:05:49;;;;;;;6.05;5.25;;;6.40;59.40;;;;;;5061923;28;20182;-76
2021/03/08 01:08:24;;;;;;;6.35;5.75;;;6.40;59.40;;;;;;5055170;28;20173;-76
2021/03/08 01:10:52;;;;;;;6.80;5.70;;;6.40;59.60;;;;;;5055041;28;20691;-76
2021/03/08 01:13:23;;;;;;;6.07;4.80;;;6.40;59.60;;;;;;5051283;28;20204;-76
2021/03/08 01:15:51;;;;;;;5.97;5.38;;;6.40;59.70;;;;;;5063665;28;20271;-76
2021/03/08 01:18:18;;;;;;;6.80;6.00;;;6.50;59.90;;;;;;5072414;28;20267;-76
2021/03/08 01:20:44;;;;;;;5.78;4.60;;;6.50;60.00;;;;;;5072691;28;20188;-76
2021/03/08 01:23:11;;;;;;;8.97;5.40;;;6.50;60.30;;;;;;5071654;28;20222;-76
2021/03/08 01:25:37;;;;;;;7.13;6.40;;;6.50;60.40;;;;;;5088245;28;20597;-76
2021/03/08 01:28:03;;;;;;;8.10;5.87;;;6.50;60.50;;;;;;5071065;28;20176;-77
2021/03/08 01:30:35;;;;;;;5.32;4.82;;;6.40;60.60;;;;;;5088289;28;20192;-76
2021/03/08 01:33:01;;;;;;;6.22;5.38;;;6.40;60.90;;;;;;5054582;28;20623;-76
2021/03/08 01:35:27;;;;;;;6.30;5.70;;;6.40;60.90;;;;;;5088006;28;20341;-77
2021/03/08 01:37:53;;;;;;;7.15;6.15;;;6.40;61.10;;;;;;5087829;28;20563;-76
2021/03/08 01:40:22;;;;;;;6.80;5.30;;;6.40;61.10;;;;;;5072235;28;20335;-77
2021/03/08 01:42:47;;;;;;;6.53;5.53;;;6.40;61.40;;;;;;5078046;28;20562;-77
2021/03/08 01:45:16;;;;;;;5.43;4.90;;;6.40;61.60;;;;;;5070743;28;20165;-77
2021/03/08 01:47:44;;;;;;;7.82;6.57;;;6.40;61.80;;;;;;5087718;28;20180;-76
2021/03/08 01:50:21;;;;;;;6.25;5.50;;;6.40;61.90;;;;;;5087455;28;20275;-76
2021/03/08 01:52:51;;;;;;;6.70;5.65;;;6.40;62.10;;;;;;5087892;28;20169;-76
2021/03/08 01:55:17;;;;;;;6.03;5.50;;;6.40;62.10;;;;;;5072103;28;20172;-76
2021/03/08 01:57:43;;;;;;;6.50;5.90;;;6.40;62.40;;;;;;5071762;28;20228;-77
2021/03/08 02:00:10;;;;;;;6.30;5.70;;;6.40;62.60;;;;;;5071724;28;20291;-76
2021/03/08 02:02:39;;;;;;;7.40;6.25;;;6.40;62.90;;;;;;5070690;28;20671;-77
2021/03/08 02:05:07;;;;;;;7.30;6.47;;;6.40;62.90;;;;;;5070675;28;20180;-77
2021/03/08 02:07:33;;;;;;;7.80;7.05;;;6.40;63.00;;;;;;5071905;28;20192;-77
2021/03/08 02:09:58;;;;;;;6.93;6.23;;;6.40;63.40;;;;;;5071655;28;20200;-77
2021/03/08 02:12:35;;;;;;;7.63;6.63;;;6.40;63.40;;;;;;5071977;28;20172;-77
2021/03/08 02:15:03;;;;;;;7.43;6.70;;;6.40;63.80;;;;;;5089995;28;20207;-77
2021/03/08 02:17:37;;;;;;;8.05;6.90;;;6.40;63.50;;;;;;5089081;28;20165;-77
2021/03/08 02:20:30;;;;;;;8.32;7.35;;;6.40;63.70;;;;;;5080390;28;20231;-76
2021/03/08 02:23:21;;;;;;;7.70;6.90;;;6.40;64.20;;;;;;5063061;28;20774;-76
2021/03/08 02:25:53;;;;;;;8.82;7.57;;;6.40;64.80;;;;;;5050041;28;20168;-76
2021/03/08 02:28:30;;;;;;;8.23;7.32;;;6.40;63.90;;;;;;5062973;28;20251;-76
2021/03/08 02:30:59;;;;;;;8.13;7.32;;;6.40;64.00;;;;;;5071515;28;20226;-75
2021/03/08 02:33:28;;;;;;;6.82;6.13;;;6.40;64.30;;;;;;5075351;28;20196;-76
2021/03/08 02:35:58;;;;;;;9.95;7.63;;;6.40;64.10;;;;;;5076683;28;20247;-76
2021/03/08 02:38:29;;;;;;;8.50;7.55;;;6.40;64.00;;;;;;5073697;28;20184;-76
2021/03/08 02:41:03;;;;;;;7.82;6.53;;;6.30;64.10;;;;;;5071208;28;20235;-76
2021/03/08 02:43:41;;;;;;;9.23;7.32;;;6.30;64.10;;;;;;5071567;28;20168;-76
2021/03/08 02:46:12;;;;;;;7.50;6.53;;;6.20;64.60;;;;;;5078889;28;20176;-76
2021/03/08 02:48:41;;;;;;;8.05;7.35;;;6.20;64.60;;;;;;5069400;28;20180;-76
2021/03/08 02:51:09;;;;;;;9.23;8.05;;;6.20;64.90;;;;;;5070632;28;20192;-76
2021/03/08 02:53:38;;;;;;;8.18;7.25;;;6.10;65.00;;;;;;5078258;28;20200;-76
2021/03/08 02:56:16;;;;;;;8.93;8.13;;;6.10;65.50;;;;;;5075998;28;20196;-77
2021/03/08 02:58:45;;;;;;;8.23;7.20;;;6.10;66.00;;;;;;5074850;28;20168;-76
2021/03/08 03:01:12;;;;;;;12.57;10.90;;;6.00;65.80;;;;;;5070934;28;20603;-76
2021/03/08 03:03:43;;;;;;;11.18;10.07;;;6.00;66.10;;;;;;5087917;28;20176;-76
2021/03/08 03:06:11;;;;;;;11.50;10.40;;;6.00;66.40;;;;;;5065291;28;20190;-75
2021/03/08 03:08:39;;;;;;;12.73;11.00;;;6.00;66.50;;;;;;5074262;28;20230;-76
2021/03/08 03:11:07;;;;;;;11.82;9.85;;;6.00;66.90;;;;;;5066139;28;20269;-76
2021/03/08 03:13:35;;;;;;;11.10;7.70;;;5.90;67.20;;;;;;5074662;28;20202;-76
2021/03/08 03:16:04;;;;;;;10.85;9.60;;;5.90;67.30;;;;;;5082283;28;20168;-77
2021/03/08 03:18:30;;;;;;;10.70;9.23;;;6.00;67.50;;;;;;5090453;28;20199;-76
2021/03/08 03:20:58;;;;;;;8.63;7.65;;;5.90;67.40;;;;;;5073900;28;20180;-76
2021/03/08 03:23:25;;;;;;;11.90;8.80;;;5.90;67.80;;;;;;5090664;28;20212;-77
2021/03/08 03:25:51;;;;;;;12.25;8.90;;;5.90;68.00;;;;;;5074532;28;20204;-76
2021/03/08 03:28:20;;;;;;;8.70;7.80;;;6.00;68.10;;;;;;5073788;28;20187;-75
2021/03/08 03:30:46;;;;;;;9.65;8.13;;;6.00;68.50;;;;;;5064878;28;20196;-76
2021/03/08 03:33:14;;;;;;;11.75;8.85;;;6.00;68.60;;;;;;5079739;28;20238;-76
2021/03/08 03:35:39;;;;;;;11.48;8.88;;;6.00;68.40;;;;;;5083491;28;20588;-76
2021/03/08 03:38:07;;;;;;;12.20;9.07;;;6.00;68.60;;;;;;5074033;28;20160;-76
2021/03/08 03:40:33;;;;;;;10.88;8.80;;;6.00;68.80;;;;;;5074689;28;20946;-76
2021/03/08 03:43:00;;;;;;;9.50;7.83;;;6.00;68.80;;;;;;5073445;28;20286;-76
2021/03/08 03:45:26;;;;;;;14.43;11.13;;;6.00;68.80;;;;;;5074584;28;20575;-76
2021/03/08 03:47:52;;;;;;;14.47;10.07;;;6.00;69.20;;;;;;5072881;28;20220;-76
2021/03/08 03:50:21;;;;;;;10.02;8.65;;;5.90;68.90;;;;;;5074307;28;20606;-76
2021/03/08 03:52:47;;;;;;;10.50;9.13;;;6.00;69.30;;;;;;5089996;28;20180;-76
2021/03/08 03:55:16;;;;;;;11.38;9.30;;;5.90;69.40;;;;;;5073180;28;20168;-76
2021/03/08 03:58:00;;;;;;;10.32;8.52;;;5.90;69.70;;;;;;5073142;28;20172;-76
2021/03/08 04:00:29;;;;;;;12.50;9.85;;;5.90;70.10;;;;;;5089825;28;20276;-76
2021/03/08 04:03:06;;;;;;;13.57;9.80;;;5.90;69.80;;;;;;5090073;28;20694;-76
2021/03/08 04:05:34;;;;;;;10.60;8.68;;;5.90;70.60;;;;;;5073192;28;20164;-76
2021/03/08 04:08:01;;;;;;;11.48;8.55;;;5.90;70.10;;;;;;5073614;28;20177;-76
2021/03/08 04:10:27;;;;;;;12.32;9.90;;;5.90;70.30;;;;;;5097966;28;20208;-76
2021/03/08 04:13:03;;;;;;;13.40;10.57;;;5.90;70.40;;;;;;5082288;22;20236;-83
2021/03/08 04:15:33;;;;;;;10.15;8.95;;;5.90;71.00;;;;;;5049970;28;20567;-83
2021/03/08 04:18:00;;;;;;;13.90;10.77;;;5.90;71.00;;;;;;5060063;28;20181;-83
2021/03/08 04:20:30;;;;;;;11.23;9.48;;;5.90;71.00;;;;;;5066242;28;20153;-84
2021/03/08 04:23:01;;;;;;;13.07;10.80;;;5.90;71.50;;;;;;5062046;28;20185;-84
2021/03/08 04:25:29;;;;;;;11.13;8.63;;;5.90;71.90;;;;;;5062758;28;20169;-84
2021/03/08 04:27:57;;;;;;;11.70;10.35;;;5.80;71.70;;;;;;5058308;28;20188;-83
2021/03/08 04:30:24;;;;;;;11.70;9.18;;;5.80;72.00;;;;;;5056764;28;20161;-83
2021/03/08 04:32:54;;;;;;;10.85;8.65;;;5.80;72.20;;;;;;5063239;28;20189;-83
2021/03/08 04:35:23;;;;;;;16.75;9.52;;;5.80;72.80;;;;;;5065014;28;20164;-82
2021/03/08 04:37:51;;;;;;;10.15;8.95;;;5.80;72.80;;;;;;5064238;28;20516;-83
2021/03/08 04:40:19;;;;;;;13.75;10.35;;;5.70;72.80;;;;;;5062473;28;20222;-83
2021/03/08 04:42:45;;;;;;;14.93;10.38;;;5.70;73.00;;;;;;5062090;28;20220;-83
2021/03/08 04:45:12;;;;;;;13.00;10.40;;;5.70;73.20;;;;;;5065508;28;20223;-83
2021/03/08 04:47:41;;;;;;;13.32;10.55;;;5.70;73.70;;;;;;5063355;28;20260;-83
2021/03/08 04:50:08;;;;;;;15.35;12.35;;;5.60;73.80;;;;;;5058385;28;20252;-83
2021/03/08 04:52:36;;;;;;;16.63;9.90;;;5.60;74.00;;;;;;5056909;28;20192;-83
2021/03/08 04:55:02;;;;;;;16.67;10.68;;;5.60;74.20;;;;;;5057820;28;20260;-83
2021/03/08 04:57:30;;;;;;;12.93;10.77;;;5.60;74.40;;;;;;5059379;28;20169;-84
2021/03/08 04:59:56;;;;;;;12.38;10.35;;;5.60;74.60;;;;;;5059663;28;20158;-83
2021/03/08 05:02:22;;;;;;;17.07;10.97;;;5.60;74.90;;;;;;5060588;28;20608;-82
2021/03/08 05:04:51;;;;;;;15.02;10.25;;;5.50;75.10;;;;;;5067904;28;20173;-83
2021/03/08 05:07:22;;;;;;;14.30;10.98;;;5.60;76.00;;;;;;5060798;28;20161;-82
2021/03/08 05:09:50;;;;;;;17.38;13.35;;;5.60;76.40;;;;;;5049844;28;20715;-82
2021/03/08 05:12:17;;;;;;;14.27;12.00;;;5.60;76.40;;;;;;5059851;28;20219;-82
2021/03/08 05:14:46;;;;;;;18.73;12.05;;;5.60;76.40;;;;;;5058217;28;20213;-81
2021/03/08 05:17:15;;;;;;;18.77;12.23;;;5.50;76.70;;;;;;5055442;28;20172;-83
2021/03/08 05:19:44;;;;;;;15.23;11.90;;;5.50;77.10;;;;;;5039072;28;20169;-82
2021/03/08 05:22:11;;;;;;;16.95;12.55;;;5.50;77.10;;;;;;5040901;28;20242;-82
2021/03/08 05:24:37;;;;;;;15.68;11.98;;;5.50;77.50;;;;;;5022395;28;20273;-83
2021/03/08 05:27:08;;;;;;;14.45;10.45;;;5.50;77.70;;;;;;5052984;28;20174;-83
2021/03/08 05:29:40;;;;;;;17.90;12.40;;;5.50;78.20;;;;;;5036629;28;20196;-83
2021/03/08 05:32:09;;;;;;;15.55;11.73;;;5.60;78.70;;;;;;5053429;28;20699;-83
2021/03/08 05:34:40;;;;;;;18.60;12.50;;;5.60;78.90;;;;;;5052421;28;20668;-84
2021/03/08 05:37:06;;;;;;;17.20;13.00;;;5.60;79.10;;;;;;5053354;28;20520;-83
2021/03/08 05:39:33;;;;;;;16.55;12.80;;;5.60;79.30;;;;;;5052316;28;20169;-84
2021/03/08 05:42:16;;;;;;;20.15;12.35;;;5.60;79.60;;;;;;5038031;28;20272;-83
2021/03/08 05:44:47;;;;;;;17.48;13.15;;;5.60;80.70;;;;;;5055327;28;20601;-84
2021/03/08 05:47:21;;;;;;;16.15;12.75;;;5.60;80.00;;;;;;5060296;28;20166;-83
2021/03/08 05:50:36;;;;;;;20.45;13.52;;;5.60;80.40;;;;;;5054918;28;20165;-83
2021/03/08 05:53:35;;;;;;;16.73;13.65;;;5.60;81.70;;;;;;5054123;28;20595;-83
2021/03/08 05:56:25;;;;;;;16.10;11.77;;;5.60;81.40;;;;;;5058750;28;20165;-83
2021/03/08 05:59:10;;;;;;;15.88;11.77;;;5.60;81.70;;;;;;5058234;28;20165;-82
2021/03/08 06:02:00;;;;;;;16.85;14.02;;;5.60;80.90;;;;;;5055972;28;20185;-82
2021/03/08 06:04:41;;;;;;;18.83;13.38;;;5.70;81.80;;;;;;5052234;28;20501;-86
2021/03/08 06:07:31;;;;;;;20.30;13.18;;;5.70;82.20;;;;;;5051923;28;20663;-83
2021/03/08 06:10:05;;;;;;;19.70;13.13;;;5.70;82.80;;;;;;5051449;28;20379;-84
2021/03/08 06:12:38;;;;;;;20.80;14.30;;;5.70;82.60;;;;;;5052070;28;20261;-83
2021/03/08 06:15:09;;;;;;;17.13;14.00;;;5.80;83.10;;;;;;5055247;28;20239;-80
2021/03/08 06:17:37;;;;;;;20.38;14.23;;;5.80;82.80;;;;;;5039278;28;20161;-81
2021/03/08 06:20:05;;;;;;;23.02;14.45;;;5.80;83.20;;;;;;5055580;28;20172;-81
2021/03/08 06:22:32;;;;;;;21.83;15.57;;;5.80;83.20;;;;;;5058639;28;20185;-81
2021/03/08 06:24:58;;;;;;;21.73;15.18;;;5.90;83.60;;;;;;5057851;28;20865;-82
2021/03/08 06:27:25;;;;;;;28.20;16.13;;;5.90;83.90;;;;;;5054911;28;20181;-82
2021/03/08 06:29:54;;;;;;;24.77;16.00;;;6.00;84.20;;;;;;5050950;28;20173;-82
2021/03/08 06:32:20;;;;;;;21.63;16.05;;;6.00;84.50;;;;;;5050269;28;20184;-82
2021/03/08 06:34:46;;;;;;;23.00;16.60;;;6.00;84.30;;;;;;5051015;28;20215;-82
2021/03/08 06:37:13;;;;;;;23.92;16.92;;;6.00;84.50;;;;;;5034649;28;20531;-82
2021/03/08 06:39:41;;;;;;;24.42;17.10;;;6.10;85.00;;;;;;5054270;28;20172;-83
2021/03/08 06:42:08;;;;;;;20.15;16.10;;;6.10;85.20;;;;;;5056772;28;20211;-82
2021/03/08 06:44:35;;;;;;;26.48;17.25;;;6.20;85.00;;;;;;5058638;28;20173;-82
2021/03/08 06:47:01;;;;;;;22.83;17.97;;;6.20;85.30;;;;;;5072529;28;20188;-80
2021/03/08 06:49:27;;;;;;;26.63;18.58;;;6.30;85.30;;;;;;5072870;28;20632;-81
2021/03/08 06:52:13;;;;;;;24.90;16.83;;;6.30;85.30;;;;;;5074120;28;20199;-81
2021/03/08 06:54:44;;;;;;;21.75;15.77;;;6.30;86.90;;;;;;5069286;28;20686;-81
2021/03/08 06:57:22;;;;;;;21.35;15.20;;;6.40;85.40;;;;;;5068488;28;20196;-79
2021/03/08 06:59:52;;;;;;;30.63;22.90;;;6.40;86.20;;;;;;5064882;28;21107;-81
2021/03/08 07:02:17;;;;;;;30.98;20.00;;;6.40;90.10;;;;;;5067231;28;20200;-81
2021/03/08 07:04:45;;;;;;;22.90;17.13;;;6.40;88.80;;;;;;5072795;28;20240;-80
2021/03/08 07:07:13;;;;;;;21.02;16.67;;;6.50;88.50;;;;;;5056438;28;20177;-81
2021/03/08 07:09:53;;;;;;;25.83;18.95;;;6.60;88.00;;;;;;5054192;28;20235;-81
2021/03/08 07:12:20;;;;;;;23.05;17.05;;;6.60;88.10;;;;;;5058192;28;20212;-80
2021/03/08 07:15:03;;;;;;;22.83;16.48;;;6.70;87.70;;;;;;5056103;28;20229;-78
2021/03/08 07:17:36;;;;;;;26.70;16.88;;;6.70;88.30;;;;;;5054812;28;20660;-79
2021/03/08 07:20:09;;;;;;;24.63;16.98;;;6.80;88.60;;;;;;5017088;28;20173;-79
2021/03/08 07:22:43;;;;;;;25.23;17.92;;;6.80;88.10;;;;;;5052112;28;20219;-80
2021/03/08 07:25:32;;;;;;;21.95;16.95;;;6.90;88.10;;;;;;5038468;28;20177;-79
2021/03/08 07:28:00;;;;;;;21.02;16.20;;;6.90;87.90;;;;;;5052368;28;20166;-79
2021/03/08 07:30:28;;;;;;;22.05;15.55;;;7.00;87.80;;;;;;5046562;28;20199;-79
2021/03/08 07:32:55;;;;;;;22.77;16.92;;;7.00;88.70;;;;;;5059055;28;20197;-80
2021/03/08 07:35:35;;;;;;;20.48;15.50;;;7.00;88.80;;;;;;5060556;28;20180;-79
2021/03/08 07:38:02;;;;;;;20.52;15.00;;;7.10;88.80;;;;;;5055381;28;20386;-79
2021/03/08 07:40:28;;;;;;;24.20;16.13;;;7.10;87.90;;;;;;5053541;28;20165;-81
2021/03/08 07:42:54;;;;;;;22.25;16.70;;;7.20;88.10;;;;;;5036169;28;20220;-79
2021/03/08 07:45:23;;;;;;;20.15;15.80;;;7.20;87.90;;;;;;5048118;28;20179;-80
2021/03/08 07:48:17;;;;;;;27.27;17.92;;;7.30;88.10;;;;;;5050887;28;20216;-80
2021/03/08 07:50:44;;;;;;;23.40;16.45;;;7.30;88.90;;;;;;5030707;28;20534;-80
2021/03/08 07:53:29;;;;;;;22.65;16.42;;;7.40;88.30;;;;;;5064895;28;20310;-79
2021/03/08 07:56:00;;;;;;;21.67;17.13;;;7.40;89.20;;;;;;5064147;28;20161;-80
2021/03/08 07:58:31;;;;;;;23.50;17.27;;;7.50;88.80;;;;;;5043045;28;20215;-80
2021/03/08 08:00:58;;;;;;;25.77;19.20;;;7.60;88.80;;;;;;5043519;28;20199;-79
2021/03/08 08:03:24;;;;;;;23.52;16.65;;;7.60;88.70;;;;;;5024002;28;20181;-82
2021/03/08 08:05:57;;;;;;;24.67;19.85;;;7.70;88.80;;;;;;5019665;28;20303;-81
2021/03/08 08:08:26;;;;;;;21.90;16.88;;;7.80;89.20;;;;;;5054204;28;20222;-81
2021/03/08 08:10:53;;;;;;;22.77;16.20;;;7.80;88.80;;;;;;5065252;28;20173;-81
2021/03/08 08:13:23;;;;;;;25.83;18.02;;;7.90;89.10;;;;;;5056999;28;20213;-81
2021/03/08 08:15:51;;;;;;;22.27;16.55;;;8.00;89.30;;;;;;5064703;28;20184;-82
2021/03/08 08:18:20;;;;;;;24.75;16.73;;;8.00;89.40;;;;;;5046717;28;20173;-81
2021/03/08 08:20:49;;;;;;;25.95;17.52;;;8.10;89.50;;;;;;5039463;28;20166;-81
2021/03/08 08:23:16;;;;;;;25.73;19.38;;;8.20;89.30;;;;;;5039828;28;20185;-82
2021/03/08 08:25:44;;;;;;;26.33;19.52;;;8.20;89.90;;;;;;5036134;28;20480;-81
2021/03/08 08:28:10;;;;;;;24.92;18.50;;;8.20;89.10;;;;;;5036887;28;20169;-81
2021/03/08 08:30:36;;;;;;;27.60;19.35;;;8.30;88.90;;;;;;5041456;28;20176;-82
2021/03/08 08:33:02;;;;;;;28.23;20.03;;;8.40;89.00;;;;;;5055006;28;20193;-82
2021/03/08 08:35:30;;;;;;;21.90;17.25;;;8.40;88.80;;;;;;5036393;28;20252;-83
2021/03/08 08:38:07;;;;;;;29.77;19.17;;;8.50;88.90;;;;;;5019449;28;20165;-82
2021/03/08 08:40:38;;;;;;;25.00;18.90;;;8.50;89.10;;;;;;5054330;28;20169;-82
2021/03/08 08:43:16;;;;;;;23.05;16.75;;;8.50;88.80;;;;;;5023543;28;20260;-82
2021/03/08 08:45:54;;;;;;;25.85;19.50;;;8.50;88.90;;;;;;5019517;28;20188;-82
2021/03/08 08:48:23;;;;;;;25.60;19.25;;;8.60;88.60;;;;;;5019066;28;20176;-83
2021/03/08 08:50:51;;;;;;;26.13;19.63;;;8.60;88.50;;;;;;5056565;28;20169;-85
2021/03/08 08:53:35;;;;;;;25.42;19.08;;;8.60;88.40;;;;;;5019143;28;20189;-85
2021/03/08 08:56:01;;;;;;;32.67;20.60;;;8.60;88.60;;;;;;5019046;28;20169;-85
2021/03/08 08:58:31;;;;;;;27.27;19.60;;;8.70;88.70;;;;;;5018907;28;20268;-83
2021/03/08 09:01:10;;;;;;;31.27;21.17;;;8.70;88.90;;;;;;5034921;28;20245;-81
2021/03/08 09:03:57;;;;;;;29.65;22.75;;;8.70;89.10;;;;;;5053073;28;20180;-82
2021/03/08 09:06:47;;;;;;;27.85;20.67;;;8.70;88.80;;;;;;5052731;28;20165;-82
2021/03/08 09:09:22;;;;;;;28.88;22.55;;;8.70;89.00;;;;;;5018624;28;20168;-83
2021/03/08 09:11:52;;;;;;;26.63;20.05;;;8.80;88.90;;;;;;5002912;28;20696;-84
2021/03/08 09:14:49;;;;;;;28.70;22.42;;;8.80;89.20;;;;;;5015393;28;20901;-82
2021/03/08 09:17:23;;;;;;;29.45;23.67;;;8.80;89.40;;;;;;4999412;28;20241;-81
2021/03/08 09:19:54;;;;;;;25.58;19.92;;;8.90;89.60;;;;;;5031381;28;20169;-81
2021/03/08 09:22:20;;;;;;;34.60;24.90;;;8.90;89.20;;;;;;5020510;28;20189;-82
2021/03/08 09:24:47;;;;;;;35.40;24.27;;;9.00;88.90;;;;;;5036585;28;20537;-84
2021/03/08 09:27:33;;;;;;;31.33;24.38;;;9.00;88.80;;;;;;5065305;28;20165;-85
2021/03/08 09:30:11;;;;;;;26.23;22.05;;;9.00;89.00;;;;;;5025035;28;20177;-81
2021/03/08 09:32:58;;;;;;;28.42;22.30;;;9.00;88.90;;;;;;5019251;28;20269;-81
2021/03/08 09:35:26;;;;;;;27.50;20.40;;;9.00;88.60;;;;;;5052592;28;20522;-80
2021/03/08 09:38:01;;;;;;;30.95;22.08;;;9.10;88.60;;;;;;5035840;28;20272;-81
2021/03/08 09:40:30;;;;;;;31.88;23.02;;;9.00;88.40;;;;;;5055539;28;20517;-79
2021/03/08 09:42:57;;;;;;;33.38;24.63;;;9.00;88.30;;;;;;5035344;28;20524;-80
2021/03/08 09:45:34;;;;;;;34.10;24.27;;;9.00;88.40;;;;;;5052253;28;20587;-81
2021/03/08 09:48:03;;;;;;;32.15;23.48;;;8.90;88.30;;;;;;5017699;28;20183;-80
2021/03/08 09:50:38;;;;;;;30.20;22.45;;;8.80;88.30;;;;;;5050685;28;20263;-81
2021/03/08 09:53:05;;;;;;;33.22;23.73;;;8.80;88.40;;;;;;5055221;28;20207;-81
2021/03/08 09:55:35;;;;;;;28.65;22.70;;;8.80;88.60;;;;;;5053578;28;20218;-80
2021/03/08 09:58:15;;;;;;;29.73;22.75;;;8.80;89.00;;;;;;5055427;28;20195;-80
2021/03/08 10:00:43;;;;;;;28.85;22.45;;;8.80;89.70;;;;;;5072708;28;20688;-81
2021/03/08 10:03:09;;;;;;;39.72;21.88;;;8.90;89.60;;;;;;5062533;28;20210;-81
2021/03/08 10:05:41;;;;;;;27.88;21.33;;;8.90;89.90;;;;;;5093220;28;20152;-82
2021/03/08 10:08:08;;;;;;;31.67;23.35;;;8.90;90.00;;;;;;5071701;28;20195;-82
2021/03/08 10:10:45;;;;;;;33.05;24.63;;;9.00;89.90;;;;;;5054902;28;20196;-81
2021/03/08 10:13:12;;;;;;;28.10;21.40;;;9.00;90.00;;;;;;5032511;23;20215;-78
2021/03/08 10:15:52;;;;;;;31.83;24.00;;;9.10;90.10;;;;;;5043999;28;20173;-79
2021/03/08 10:18:30;;;;;;;32.53;23.40;;;9.20;90.20;;;;;;5017681;28;20179;-78
2021/03/08 10:20:58;;;;;;;32.05;25.27;;;9.20;90.20;;;;;;5051213;28;20188;-78
2021/03/08 10:23:35;;;;;;;29.80;22.48;;;9.30;90.10;;;;;;5011762;28;20566;-77
2021/03/08 10:26:12;;;;;;;35.35;25.80;;;9.30;90.10;;;;;;4990176;28;20703;-77
2021/03/08 10:28:44;;;;;;;35.03;24.63;;;9.40;90.30;;;;;;5032461;28;20180;-77
2021/03/08 10:31:26;;;;;;;35.47;26.60;;;9.40;90.20;;;;;;5006991;28;20839;-77
2021/03/08 10:34:01;;;;;;;35.40;24.50;;;9.50;90.40;;;;;;5024458;28;20204;-76
2021/03/08 10:36:30;;;;;;;33.85;25.08;;;9.60;90.40;;;;;;5032552;28;20165;-78
2021/03/08 10:38:58;;;;;;;37.58;25.30;;;9.70;90.80;;;;;;5033452;28;20707;-79
2021/03/08 10:41:29;;;;;;;34.78;27.42;;;9.80;90.40;;;;;;5015032;28;20174;-79
2021/03/08 10:43:56;;;;;;;37.15;26.23;;;9.80;90.50;;;;;;5031035;28;20166;-77
2021/03/08 10:46:41;;;;;;;37.13;26.50;;;9.90;90.90;;;;;;5032101;28;20186;-77
2021/03/08 10:49:09;;;;;;;37.95;24.90;;;10.00;90.10;;;;;;5014071;28;20169;-77
2021/03/08 10:51:37;;;;;;;37.47;27.08;;;10.20;90.10;;;;;;5010549;28;20181;-78
2021/03/08 10:54:11;;;;;;;32.72;24.90;;;10.30;90.10;;;;;;4993918;28;20210;-78
2021/03/08 10:56:40;;;;;;;36.97;26.80;;;10.50;90.10;;;;;;4963574;28;20174;-77
2021/03/08 10:59:23;;;;;;;34.45;27.42;;;10.60;90.00;;;;;;5003758;28;20170;-76
2021/03/08 11:02:07;;;;;;;31.67;24.13;;;10.70;89.90;;;;;;5020382;28;20209;-76
2021/03/08 11:04:38;;;;;;;31.17;24.02;;;10.80;89.60;;;;;;5030345;28;20166;-76
2021/03/08 11:07:06;;;;;;;31.35;24.17;;;10.90;89.50;;;;;;5017073;28;20178;-77
2021/03/08 11:09:37;;;;;;;32.58;24.80;;;11.00;89.70;;;;;;5026966;28;20224;-77
2021/03/08 11:12:05;;;;;;;34.40;24.08;;;11.10;89.80;;;;;;5053422;28;20193;-76
2021/03/08 11:14:51;;;;;;;31.42;24.60;;;11.20;89.70;;;;;;5019076;28;20200;-79
2021/03/08 11:17:36;;;;;;;31.80;23.33;;;11.30;89.30;;;;;;5043389;28;20185;-76
2021/03/08 11:20:11;;;;;;;30.85;24.30;;;11.30;88.60;;;;;;5037130;28;20157;-77
2021/03/08 11:23:03;;;;;;;33.90;25.63;;;11.40;88.60;;;;;;5036370;28;20189;-78
2021/03/08 11:25:32;;;;;;;32.28;24.75;;;11.40;88.30;;;;;;5035238;28;20177;-78
2021/03/08 11:28:00;;;;;;;33.75;24.08;;;11.40;88.10;;;;;;5017554;28;20280;-78
2021/03/08 11:30:28;;;;;;;32.05;23.98;;;11.50;88.10;;;;;;5034026;28;20165;-79
2021/03/08 11:32:59;;;;;;;29.58;21.60;;;11.50;88.00;;;;;;5017894;28;20550;-78
2021/03/08 11:35:28;;;;;;;35.05;27.90;;;11.50;87.90;;;;;;4998352;28;20216;-79
2021/03/08 11:38:01;;;;;;;38.15;30.55;;;11.50;87.70;;;;;;4997649;28;20249;-78
2021/03/08 11:40:28;;;;;;;39.05;31.42;;;11.50;87.10;;;;;;5015619;28;20166;-79
2021/03/08 11:42:55;;;;;;;34.95;26.23;;;11.50;87.10;;;;;;4997976;28;20190;-79
2021/03/08 11:45:22;;;;;;;39.13;27.08;;;11.50;87.40;;;;;;5015850;28;20162;-79
2021/03/08 11:47:55;;;;;;;34.47;26.50;;;11.50;87.70;;;;;;5015463;28;20171;-79
2021/03/08 11:50:24;;;;;;;32.70;25.40;;;11.50;87.80;;;;;;5020604;28;20177;-79
2021/03/08 11:52:50;;;;;;;34.72;30.15;;;11.60;88.00;;;;;;5023490;28;20239;-79
2021/03/08 11:55:17;;;;;;;34.72;27.63;;;11.70;88.00;;;;;;5015756;28;20248;-79
2021/03/08 11:57:47;;;;;;;37.65;28.42;;;11.70;88.00;;;;;;4998480;28;20574;-80
2021/03/08 12:00:15;;;;;;;33.55;27.77;;;11.80;87.80;;;;;;5015798;28;20537;-81
2021/03/08 12:02:41;;;;;;;35.30;27.85;;;11.80;87.60;;;;;;5000349;28;20278;-81
2021/03/08 12:05:08;;;;;;;33.03;26.90;;;11.90;87.70;;;;;;4989078;28;20184;-81
2021/03/08 12:07:34;;;;;;;36.85;28.40;;;11.90;87.50;;;;;;5036085;28;20170;-81
2021/03/08 12:10:01;;;;;;;37.57;28.67;;;11.90;87.50;;;;;;5036238;28;20173;-81
2021/03/08 12:12:30;;;;;;;36.10;27.98;;;12.00;87.60;;;;;;5036877;28;20998;-81
2021/03/08 12:14:56;;;;;;;41.70;31.20;;;12.00;87.20;;;;;;5021998;28;20215;-81
2021/03/08 12:17:22;;;;;;;40.40;32.87;;;12.10;86.80;;;;;;5004311;28;20986;-81
2021/03/08 12:19:48;;;;;;;41.50;31.93;;;12.00;86.50;;;;;;5004806;28;20564;-80
2021/03/08 12:22:15;;;;;;;42.05;31.77;;;12.00;86.30;;;;;;5023904;28;20632;-80
2021/03/08 12:24:41;;;;;;;40.05;32.72;;;12.00;86.10;;;;;;5022531;28;20255;-80
2021/03/08 12:27:07;;;;;;;38.72;29.92;;;12.00;86.40;;;;;;5019582;28;20177;-80
2021/03/08 12:29:33;;;;;;;40.57;32.23;;;12.00;86.80;;;;;;5018405;28;20178;-80
2021/03/08 12:32:00;;;;;;;43.42;34.85;;;12.10;87.20;;;;;;5020890;28;20603;-80
2021/03/08 12:34:26;;;;;;;41.45;32.63;;;12.20;87.20;;;;;;5025321;28;20202;-81
2021/03/08 12:36:52;;;;;;;44.23;33.93;;;12.20;86.90;;;;;;5009639;28;20625;-81
2021/03/08 12:39:18;;;;;;;43.67;33.53;;;12.30;86.90;;;;;;5038650;28;20897;-82
2021/03/08 12:41:45;;;;;;;39.60;31.80;;;12.40;87.00;;;;;;5037780;28;20173;-81
2021/03/08 12:44:11;;;;;;;44.83;34.53;;;12.40;87.00;;;;;;5028340;28;20572;-82
2021/03/08 12:46:38;;;;;;;43.00;33.78;;;12.50;87.20;;;;;;5024764;28;20177;-82
2021/03/08 12:49:04;;;;;;;48.15;37.03;;;12.70;87.60;;;;;;5038234;28;20173;-82
2021/03/08 12:51:29;;;;;;;49.80;37.23;;;12.80;87.10;;;;;;5037348;28;20178;-82
2021/03/08 12:53:55;;;;;;;42.90;34.45;;;12.80;86.50;;;;;;5002995;28;20221;-81
2021/03/08 12:56:21;;;;;;;47.60;35.40;;;12.90;86.60;;;;;;5034255;28;20162;-82
2021/03/08 12:58:48;;;;;;;49.85;34.90;;;12.90;86.40;;;;;;5018120;28;20223;-81